Time;durP1;ratioP1;P1;durP2;ratioP2;P2;SDS_P1;SDS_P2;PMS_P1;PMS_P2;Temp;Humidity;BMP_temperature;BMP_pressure;BME280_temperature;BME280_humidity;BME280_pressure;Samples;Min_cycle;Max_cycle;Signal;HPM_P1;HPM_P2
2021/01/02 00:00:27;;;;;;;8.60;3.85;;;;;;;5.26;65.00;100564.33;1756023;79;21184;-55
2021/01/02 00:03:20;;;;;;;8.73;3.90;;;;;;;5.23;64.61;100563.19;1762331;80;21212;-55
2021/01/02 00:06:13;;;;;;;10.23;3.65;;;;;;;5.22;64.43;100571.92;1756169;79;21188;-56
2021/01/02 00:08:42;;;;;;;7.10;3.08;;;;;;;5.18;64.47;100564.73;1707565;79;21390;-55
2021/01/02 00:11:24;;;;;;;7.00;3.37;;;;;;;5.15;64.71;100578.41;1758465;80;21423;-55
2021/01/02 00:14:48;;;;;;;8.03;2.90;;;;;;;5.13;64.92;100582.87;1759846;80;22047;-55
2021/01/02 00:17:33;;;;;;;8.00;2.92;;;;;;;5.20;64.77;100583.75;1713706;82;22368;-55
2021/01/02 00:20:32;;;;;;;13.70;3.95;;;;;;;5.27;64.88;100588.17;1738075;80;21195;-55
2021/01/02 00:22:59;;;;;;;10.78;4.22;;;;;;;5.25;64.65;100589.19;1705966;80;21219;-55
2021/01/02 00:25:31;;;;;;;8.60;3.65;;;;;;;5.22;64.77;100603.23;1744307;80;21373;-55
2021/01/02 00:28:24;;;;;;;8.23;4.28;;;;;;;5.21;64.72;100593.70;1761260;80;21177;-55
2021/01/02 00:31:00;;;;;;;7.60;3.60;;;;;;;5.24;64.64;100600.07;1735734;80;21701;-55
2021/01/02 00:36:56;;;;;;;8.53;3.55;;;;;;;5.23;64.40;100615.36;1680743;84;21132;-56
2021/01/02 00:39:46;;;;;;;7.53;3.20;;;;;;;5.14;63.73;100620.59;1716405;82;22101;-55
2021/01/02 00:42:14;;;;;;;9.30;3.45;;;;;;;5.25;63.11;100624.42;1726254;82;21637;-55
2021/01/02 00:44:42;;;;;;;6.17;3.20;;;;;;;5.25;63.11;100624.42;1710250;81;21195;-55
2021/01/02 00:47:11;;;;;;;7.55;3.52;;;;;;;5.32;62.85;100625.29;1732503;81;21207;-55
2021/01/02 00:49:39;;;;;;;6.72;3.72;;;;;;;5.30;63.20;100631.53;1738667;81;21159;-55
2021/01/02 00:52:47;;;;;;;9.50;3.40;;;;;;;5.29;63.10;100638.97;1735843;82;21206;-55
2021/01/02 00:55:38;;;;;;;7.62;3.02;;;;;;;5.26;63.16;100636.52;1723220;81;21242;-56
2021/01/02 00:58:29;;;;;;;7.37;3.05;;;;;;;5.19;63.41;100642.08;1738461;82;21187;-54
2021/01/02 01:01:02;;;;;;;12.20;4.40;;;;;;;5.14;63.64;100645.84;1729989;81;21226;-56
2021/01/02 01:04:12;;;;;;;6.50;3.22;;;;;;;5.07;64.10;100647.94;1733355;82;21635;-56
2021/01/02 01:06:39;;;;;;;9.05;3.42;;;;;;;5.00;64.41;100645.28;1738638;81;21269;-55
2021/01/02 01:09:07;;;;;;;6.70;3.12;;;;;;;5.01;64.40;100644.36;1725853;81;21222;-55
2021/01/02 01:11:36;;;;;;;11.22;4.15;;;;;;;5.10;64.16;100650.38;1739631;81;21178;-55
2021/01/02 01:14:04;;;;;;;7.28;3.27;;;;;;;5.11;63.95;100657.30;1739200;82;21433;-55
2021/01/02 01:16:42;;;;;;;7.80;3.05;;;;;;;5.03;63.91;100652.95;1737015;81;21183;-55
2021/01/02 01:19:11;;;;;;;7.40;3.35;;;;;;;4.96;63.94;100660.25;1732444;81;21207;-56
2021/01/02 01:21:42;;;;;;;9.53;3.10;;;;;;;4.89;63.36;100651.50;1734548;81;21620;-56
2021/01/02 01:24:14;;;;;;;7.00;2.90;;;;;;;4.80;63.53;100647.14;1730338;82;21144;-56
2021/01/02 01:27:17;;;;;;;7.30;3.15;;;;;;;4.76;63.84;100657.83;1734831;82;21903;-56
2021/01/02 01:29:57;;;;;;;6.60;2.90;;;;;;;4.72;63.96;100658.89;1734354;81;21130;-55
2021/01/02 01:32:27;;;;;;;6.20;3.15;;;;;;;4.66;63.76;100670.48;1735939;81;21850;-56
2021/01/02 01:35:00;;;;;;;6.45;2.45;;;;;;;4.60;63.60;100676.84;1721704;81;21196;-57
2021/01/02 01:37:32;;;;;;;5.83;2.60;;;;;;;4.55;63.61;100676.23;1736671;81;21123;-56
2021/01/02 01:40:01;;;;;;;6.05;2.95;;;;;;;4.52;63.67;100678.14;1739044;81;21207;-56
2021/01/02 01:42:41;;;;;;;6.22;2.80;;;;;;;4.54;63.60;100677.16;1735861;81;21346;-56
2021/01/02 01:45:38;;;;;;;9.90;3.27;;;;;;;4.67;62.91;100681.75;1730300;81;21260;-55
2021/01/02 01:48:12;;;;;;;7.42;2.60;;;;;;;4.71;62.60;100680.66;1730228;82;21184;-55
2021/01/02 01:50:54;;;;;;;6.20;3.12;;;;;;;4.69;62.87;100695.10;1728684;81;21622;-55
2021/01/02 01:53:56;;;;;;;8.80;3.72;;;;;;;4.70;62.52;100695.94;1729145;81;21174;-56
2021/01/02 01:56:40;;;;;;;8.85;4.28;;;;;;;4.67;62.44;100694.78;1727260;81;21654;-56
2021/01/02 01:59:22;;;;;;;9.73;4.75;;;;;;;4.59;62.59;100705.58;1731505;81;21856;-55
2021/01/02 02:01:55;;;;;;;8.00;3.45;;;;;;;4.53;62.52;100709.81;1726578;81;21200;-55
2021/01/02 02:05:06;;;;;;;7.90;3.65;;;;;;;4.46;62.27;100715.32;1716021;81;21116;-55
2021/01/02 02:08:01;;;;;;;5.30;2.60;;;;;;;4.41;62.45;100717.31;1721170;82;21128;-55
2021/01/02 02:10:38;;;;;;;6.53;2.92;;;;;;;4.33;62.55;100724.66;1730465;81;21140;-56
2021/01/02 02:13:16;;;;;;;10.98;3.52;;;;;;;4.26;62.44;100730.61;1734512;82;21436;-56
2021/01/02 02:15:55;;;;;;;6.53;3.25;;;;;;;4.22;62.24;100737.34;1736637;81;22011;-56
2021/01/02 02:18:25;;;;;;;8.93;3.77;;;;;;;4.13;62.01;100737.33;1731440;81;21140;-56
2021/01/02 02:20:59;;;;;;;7.35;3.40;;;;;;;4.11;61.91;100737.86;1725929;81;21164;-56
2021/01/02 02:23:50;;;;;;;8.25;3.80;;;;;;;4.16;61.36;100742.39;1723894;82;21607;-57
2021/01/02 02:26:35;;;;;;;10.15;3.70;;;;;;;4.14;61.55;100752.52;1722846;81;21297;-56
2021/01/02 02:29:20;;;;;;;7.30;3.30;;;;;;;4.09;61.85;100757.94;1730552;81;21184;-56
2021/01/02 02:31:46;;;;;;;5.95;2.90;;;;;;;4.08;61.96;100758.84;1648645;85;21634;-56
2021/01/02 02:34:15;;;;;;;9.15;4.17;;;;;;;4.05;62.18;100773.30;1664298;85;21136;-56
2021/01/02 02:36:42;;;;;;;7.78;3.22;;;;;;;4.02;62.19;100769.09;1683233;83;21148;-56
2021/01/02 02:39:12;;;;;;;7.75;3.58;;;;;;;3.99;62.34;100769.70;1679563;83;21243;-56
2021/01/02 02:41:52;;;;;;;7.80;3.40;;;;;;;3.95;62.25;100774.64;1684232;83;21407;-56
2021/01/02 02:44:26;;;;;;;8.25;3.85;;;;;;;3.88;61.81;100780.16;1677707;83;21236;-55
2021/01/02 02:46:57;;;;;;;6.92;2.98;;;;;;;3.79;61.75;100774.52;1668593;83;21148;-55
2021/01/02 02:51:44;;;;;;;7.25;3.05;;;;;;;3.74;62.16;100782.53;1770963;79;22697;-56
2021/01/02 02:54:12;;;;;;;10.18;3.95;;;;;;;3.66;62.54;100784.62;1731150;82;21160;-56
2021/01/02 02:56:39;;;;;;;7.58;3.77;;;;;;;3.68;62.67;100784.09;1722333;82;22139;-56
2021/01/02 02:59:10;;;;;;;8.83;3.05;;;;;;;3.71;62.63;100790.47;1710769;82;21195;-56
2021/01/02 03:01:37;;;;;;;7.58;3.42;;;;;;;3.72;62.72;100785.20;1702353;82;21208;-56
2021/01/02 03:04:05;;;;;;;6.37;3.30;;;;;;;3.75;62.66;100788.13;1728834;82;21667;-55
2021/01/02 03:06:32;;;;;;;6.50;3.50;;;;;;;3.82;62.49;100793.44;1728808;82;21073;-56
2021/01/02 03:09:00;;;;;;;8.90;3.22;;;;;;;3.97;62.22;100793.20;1736366;82;21433;-56
2021/01/02 03:11:28;;;;;;;9.20;4.05;;;;;;;4.07;61.99;100798.84;1734122;82;21186;-56
2021/01/02 03:13:56;;;;;;;9.38;3.27;;;;;;;4.07;61.94;100799.67;1732605;82;21699;-56
2021/01/02 03:16:24;;;;;;;9.73;3.90;;;;;;;4.06;62.15;100807.55;1729733;82;22294;-55
2021/01/02 03:18:51;;;;;;;7.65;3.42;;;;;;;4.06;62.29;100808.86;1730690;82;21250;-56
2021/01/02 03:21:19;;;;;;;7.83;3.22;;;;;;;4.06;62.20;100810.16;1726930;82;21209;-56
2021/01/02 03:23:48;;;;;;;7.17;3.65;;;;;;;4.08;62.32;100816.13;1735578;82;21130;-56
2021/01/02 03:26:16;;;;;;;7.62;2.85;;;;;;;4.10;62.15;100815.59;1742573;82;21216;-56
2021/01/02 03:28:51;;;;;;;6.72;2.98;;;;;;;4.08;62.25;100825.25;1737351;82;21185;-56
2021/01/02 03:31:26;;;;;;;8.60;3.65;;;;;;;4.13;62.51;100823.74;1758409;79;22883;-56
2021/01/02 03:33:54;;;;;;;8.10;3.87;;;;;;;4.09;62.34;100817.37;1734016;81;21570;-56
2021/01/02 03:36:21;;;;;;;8.60;3.22;;;;;;;4.08;62.54;100827.85;1729678;82;22242;-56
2021/01/02 03:38:58;;;;;;;7.35;3.15;;;;;;;4.08;62.56;100816.13;1723458;82;21452;-56
2021/01/02 03:41:28;;;;;;;8.25;3.45;;;;;;;4.08;62.62;100818.73;1725239;81;21157;-56
2021/01/02 03:43:55;;;;;;;9.35;3.92;;;;;;;4.14;62.73;100813.72;1730085;81;21156;-56
2021/01/02 03:46:27;;;;;;;8.43;3.52;;;;;;;4.31;62.47;100816.37;1730513;82;21212;-56
2021/01/02 03:48:55;;;;;;;6.85;3.65;;;;;;;4.43;62.11;100819.69;1730083;82;22374;-56
2021/01/02 03:51:27;;;;;;;8.63;3.87;;;;;;;4.48;62.05;100832.52;1733785;82;21600;-56
2021/01/02 03:53:54;;;;;;;6.65;3.05;;;;;;;4.48;62.14;100832.52;1727592;82;21204;-56
2021/01/02 03:56:22;;;;;;;8.78;3.92;;;;;;;4.51;62.32;100835.45;1729226;82;21460;-56
2021/01/02 03:58:50;;;;;;;7.92;3.47;;;;;;;4.51;62.30;100841.96;1738721;82;21187;-56
2021/01/02 04:01:17;;;;;;;8.68;3.10;;;;;;;4.49;61.96;100848.55;1723847;82;21209;-56
2021/01/02 04:03:45;;;;;;;8.88;4.20;;;;;;;4.42;62.15;100849.73;1725226;82;21164;-56
2021/01/02 04:06:13;;;;;;;7.80;3.45;;;;;;;4.35;62.25;100858.29;1732322;82;21117;-56
2021/01/02 04:08:41;;;;;;;10.10;3.65;;;;;;;4.24;62.27;100859.27;1730279;82;21811;-53
2021/01/02 04:11:09;;;;;;;7.22;3.85;;;;;;;4.16;62.56;100864.81;1734106;82;21196;-57
2021/01/02 04:13:36;;;;;;;7.62;3.83;;;;;;;4.10;62.66;100874.20;1725942;82;21383;-56
2021/01/02 04:16:05;;;;;;;7.40;4.00;;;;;;;4.02;62.79;100870.66;1728939;82;21247;-56
2021/01/02 04:18:33;;;;;;;9.28;3.98;;;;;;;3.96;63.09;100870.92;1721257;82;21192;-56
2021/01/02 04:21:00;;;;;;;7.25;3.50;;;;;;;3.93;63.03;100872.81;1724008;82;21132;-56
2021/01/02 04:23:28;;;;;;;7.17;3.12;;;;;;;3.86;63.16;100874.84;1736501;82;21156;-56
2021/01/02 04:25:56;;;;;;;7.55;3.17;;;;;;;3.88;63.03;100878.22;1744659;82;22358;-56
2021/01/02 04:28:24;;;;;;;7.75;3.30;;;;;;;3.97;62.87;100880.87;1737905;82;21160;-56
2021/01/02 04:30:51;;;;;;;6.65;2.85;;;;;;;4.00;62.86;100885.94;1733937;82;21125;-56
2021/01/02 04:33:19;;;;;;;6.60;3.60;;;;;;;4.01;62.71;100890.25;1730417;82;21187;-56
2021/01/02 04:35:46;;;;;;;7.05;3.15;;;;;;;3.94;62.81;100897.48;1727509;82;21232;-56
2021/01/02 04:38:14;;;;;;;6.87;3.30;;;;;;;3.86;62.80;100903.02;1718844;82;23620;-56
2021/01/02 04:40:42;;;;;;;6.03;3.08;;;;;;;3.80;63.04;100910.25;1719085;82;21196;-57
2021/01/02 04:43:09;;;;;;;6.40;3.30;;;;;;;3.75;63.28;100920.88;1732270;82;21655;-56
2021/01/02 04:45:36;;;;;;;6.33;2.90;;;;;;;3.72;63.39;100921.84;1717262;82;21144;-56
2021/01/02 04:48:06;;;;;;;6.50;3.33;;;;;;;3.68;63.54;100921.60;1733290;82;21172;-56
2021/01/02 04:50:34;;;;;;;6.25;2.98;;;;;;;3.66;63.65;100919.49;1727677;82;21608;-57
2021/01/02 04:53:04;;;;;;;6.60;2.50;;;;;;;3.66;63.72;100929.06;1736817;82;21228;-57
2021/01/02 04:55:32;;;;;;;6.22;2.72;;;;;;;3.67;63.81;100929.47;1733264;82;21572;-56
2021/01/02 04:58:00;;;;;;;6.72;3.42;;;;;;;3.66;63.87;100934.27;1735100;80;21180;-57
2021/01/02 05:00:28;;;;;;;8.48;3.62;;;;;;;3.65;63.94;100933.91;1718810;82;21228;-57
2021/01/02 05:02:55;;;;;;;8.63;3.58;;;;;;;3.67;63.99;100941.19;1724229;80;21366;-55
2021/01/02 05:05:22;;;;;;;7.40;3.55;;;;;;;3.71;63.75;100945.34;1693247;82;21136;-55
2021/01/02 05:07:50;;;;;;;7.97;3.47;;;;;;;3.79;63.59;100944.55;1732590;82;21396;-55
2021/01/02 05:10:18;;;;;;;8.35;3.95;;;;;;;3.83;63.56;100945.27;1734432;82;21571;-54
2021/01/02 05:12:46;;;;;;;7.85;3.33;;;;;;;3.79;63.61;100958.87;1728792;82;21136;-55
2021/01/02 05:15:15;;;;;;;9.13;3.08;;;;;;;3.71;63.54;100961.78;1744735;82;22361;-56
2021/01/02 05:17:42;;;;;;;8.65;4.62;;;;;;;3.63;63.74;100961.30;1739784;82;21199;-56
2021/01/02 05:20:15;;;;;;;7.45;4.15;;;;;;;3.54;63.79;100966.39;1740003;82;21203;-56
2021/01/02 05:22:43;;;;;;;7.83;3.90;;;;;;;3.43;64.04;100962.11;1733202;82;21647;-56
2021/01/02 05:25:18;;;;;;;9.10;4.30;;;;;;;3.34;64.15;100974.18;1738246;82;21200;-56
2021/01/02 05:27:52;;;;;;;7.53;3.93;;;;;;;3.26;64.41;100974.51;1740855;82;21427;-55
2021/01/02 05:30:29;;;;;;;8.95;4.20;;;;;;;3.15;64.46;100982.72;1727331;82;21639;-55
2021/01/02 05:33:11;;;;;;;9.80;3.95;;;;;;;3.13;64.55;100984.53;1708466;81;21148;-55
2021/01/02 05:35:47;;;;;;;12.70;4.97;;;;;;;3.14;64.40;100983.64;1712596;82;21166;-56
2021/01/02 05:38:22;;;;;;;10.23;4.20;;;;;;;3.12;64.41;100990.63;1729282;82;21232;-51
2021/01/02 05:40:55;;;;;;;8.58;4.65;;;;;;;3.03;64.63;100996.20;1718013;82;23136;-56
2021/01/02 05:43:25;;;;;;;12.05;5.20;;;;;;;2.95;64.83;101001.69;1730719;82;21212;-55
2021/01/02 05:45:53;;;;;;;13.13;4.17;;;;;;;2.87;65.01;101007.63;1720998;82;21625;-55
2021/01/02 05:48:26;;;;;;;9.88;4.65;;;;;;;2.82;65.22;101012.63;1723459;82;21251;-55
2021/01/02 05:50:58;;;;;;;11.83;5.12;;;;;;;2.82;65.34;101021.26;1715864;82;21675;-56
2021/01/02 05:53:30;;;;;;;9.70;4.40;;;;;;;2.82;65.42;101019.13;1717567;82;21631;-57
2021/01/02 05:59:07;;;;;;;10.32;5.03;;;;;;;2.85;65.43;101023.74;1723946;83;21175;-56
2021/01/02 06:01:35;;;;;;;7.97;4.25;;;;;;;2.84;65.55;101025.97;1725931;83;21136;-56
2021/01/02 06:04:04;;;;;;;9.48;5.12;;;;;;;2.89;65.54;101035.73;1721042;81;21196;-57
2021/01/02 06:06:33;;;;;;;11.35;5.08;;;;;;;2.94;65.49;101049.84;1722769;83;21695;-57
2021/01/02 06:09:04;;;;;;;10.80;5.25;;;;;;;3.01;65.52;101051.76;1715991;81;21204;-56
2021/01/02 06:11:33;;;;;;;14.45;5.58;;;;;;;3.06;65.36;101053.73;1721172;83;21165;-55
2021/01/02 06:14:01;;;;;;;9.65;4.55;;;;;;;3.06;65.24;101047.23;1722448;81;21187;-57
2021/01/02 06:16:30;;;;;;;9.18;4.35;;;;;;;3.10;65.19;101050.13;1720339;82;21181;-56
2021/01/02 06:18:58;;;;;;;10.25;4.80;;;;;;;3.21;65.00;101058.80;1722800;83;22211;-56
2021/01/02 06:21:27;;;;;;;8.85;4.30;;;;;;;3.29;64.84;101067.16;1725016;83;22362;-56
2021/01/02 06:23:55;;;;;;;8.90;4.12;;;;;;;3.34;64.78;101069.12;1673895;83;21203;-56
2021/01/02 06:26:23;;;;;;;8.85;4.50;;;;;;;3.32;64.79;101069.19;1723352;81;21619;-56
2021/01/02 06:28:53;;;;;;;9.23;3.75;;;;;;;3.30;64.76;101080.57;1718581;83;21345;-56
2021/01/02 06:31:21;;;;;;;8.43;3.47;;;;;;;3.24;64.95;101088.59;1721837;83;22948;-57
2021/01/02 06:33:50;;;;;;;8.68;4.55;;;;;;;3.19;64.88;101082.73;1673733;83;21235;-54
2021/01/02 06:36:40;;;;;;;9.68;4.47;;;;;;;3.13;64.94;101083.36;1720405;83;21221;-54
2021/01/02 06:39:31;;;;;;;10.48;5.05;;;;;;;3.08;65.12;101089.65;1679683;85;21187;-54
2021/01/02 06:42:00;;;;;;;9.85;4.37;;;;;;;3.04;65.35;101099.75;1679801;83;21241;-55
2021/01/02 06:44:44;;;;;;;9.50;4.35;;;;;;;3.04;65.23;101094.55;1674686;84;21287;-54
2021/01/02 06:47:21;;;;;;;8.88;4.20;;;;;;;3.15;65.04;101093.23;1690253;84;21201;-57
2021/01/02 06:49:53;;;;;;;9.93;4.08;;;;;;;3.20;64.83;101090.94;1680066;83;21211;-53
2021/01/02 06:52:35;;;;;;;8.60;4.60;;;;;;;3.18;64.93;101099.22;1692291;82;21221;-55
2021/01/02 06:55:21;;;;;;;9.60;4.62;;;;;;;3.15;64.90;101102.34;1692342;83;21516;-55
2021/01/02 06:57:50;;;;;;;10.32;4.78;;;;;;;3.11;65.07;101113.78;1678129;83;21446;-54
2021/01/02 07:00:26;;;;;;;10.43;4.62;;;;;;;3.10;65.31;101118.57;1688170;83;21221;-55
2021/01/02 07:03:02;;;;;;;10.95;5.25;;;;;;;3.14;65.18;101123.20;1870259;75;22722;-56
2021/01/02 07:05:49;;;;;;;10.90;5.53;;;;;;;3.06;65.23;101114.83;1839161;75;21155;-63
2021/01/02 07:08:46;;;;;;;8.60;5.03;;;;;;;3.03;65.47;101121.02;1830448;76;21352;-62
2021/01/02 07:11:36;;;;;;;11.88;5.45;;;;;;;3.02;65.65;101131.00;1759372;79;22880;-66
2021/01/02 07:14:15;;;;;;;8.20;4.25;;;;;;;3.06;65.84;101139.53;1731674;82;22428;-63
2021/01/02 07:19:45;;;;;;;9.03;5.30;;;;;;;3.27;65.39;101132.70;1828380;76;22712;-66
2021/01/02 07:22:18;;;;;;;10.10;5.17;;;;;;;3.29;65.53;101142.13;1790358;78;21187;-66
2021/01/02 07:24:49;;;;;;;11.22;4.62;;;;;;;3.33;65.39;101144.19;1801791;79;21230;-61
2021/01/02 07:27:24;;;;;;;10.28;4.83;;;;;;;3.35;65.20;101148.87;1796526;77;21211;-70
2021/01/02 07:29:53;;;;;;;10.88;5.10;;;;;;;3.29;65.18;101151.70;1795363;77;21222;-68
2021/01/02 07:32:27;;;;;;;11.15;5.00;;;;;;;3.21;65.53;101153.30;1794822;79;21210;-68
2021/01/02 07:34:58;;;;;;;10.45;4.85;;;;;;;3.21;65.60;101153.30;1794609;79;21187;-64
2021/01/02 07:37:33;;;;;;;11.65;6.03;;;;;;;3.22;65.71;101152.84;1794186;77;21380;-64
2021/01/02 07:40:14;;;;;;;8.80;4.90;;;;;;;3.31;65.53;101164.19;1790537;77;21060;-65
2021/01/02 07:42:52;;;;;;;13.70;6.65;;;;;;;3.44;65.37;101161.52;1789148;79;21206;-65
2021/01/02 07:45:27;;;;;;;8.30;4.72;;;;;;;3.52;65.13;101163.38;1791301;79;21614;-66
2021/01/02 07:47:56;;;;;;;12.87;6.13;;;;;;;3.53;65.12;101159.89;1795083;78;21595;-67
2021/01/02 07:50:28;;;;;;;11.80;5.08;;;;;;;3.53;65.34;101167.69;1792556;77;21220;-65
2021/01/02 07:52:58;;;;;;;13.35;5.17;;;;;;;3.57;65.35;101165.81;1798307;79;21135;-65
2021/01/02 07:55:28;;;;;;;9.30;5.15;;;;;;;3.61;65.34;101166.55;1799472;79;21203;-65
2021/01/02 07:57:56;;;;;;;13.58;5.90;;;;;;;3.63;65.17;101170.80;1795833;77;21132;-66
2021/01/02 08:00:24;;;;;;;11.38;5.72;;;;;;;3.65;65.10;101176.78;1795318;78;21598;-65
2021/01/02 08:02:52;;;;;;;12.95;5.90;;;;;;;3.64;65.07;101181.58;1790544;79;21622;-68
2021/01/02 08:05:23;;;;;;;10.05;5.53;;;;;;;3.64;65.07;101184.65;1790992;78;21180;-66
2021/01/02 08:07:59;;;;;;;11.75;5.37;;;;;;;3.69;64.70;101197.87;1787438;78;21195;-67
2021/01/02 08:10:28;;;;;;;11.63;5.50;;;;;;;3.77;64.63;101187.64;1785126;79;21143;-66
2021/01/02 08:12:57;;;;;;;10.50;5.35;;;;;;;3.83;64.54;101196.06;1784889;79;22347;-65
2021/01/02 08:15:34;;;;;;;10.63;5.53;;;;;;;3.83;64.58;101197.36;1791641;79;21201;-70
2021/01/02 08:18:08;;;;;;;10.85;5.37;;;;;;;3.84;64.54;101200.34;1797575;79;21203;-70
2021/01/02 08:20:36;;;;;;;8.68;5.53;;;;;;;3.84;64.66;101203.41;1803687;79;21192;-69
2021/01/02 08:23:10;;;;;;;8.30;4.92;;;;;;;3.85;64.81;101220.27;1804236;79;21160;-63
2021/01/02 08:25:37;;;;;;;11.33;5.65;;;;;;;3.88;64.60;101212.35;1807903;78;21171;-64
2021/01/02 08:28:05;;;;;;;10.25;5.00;;;;;;;3.93;64.61;101216.05;1739240;80;22981;-66
2021/01/02 08:30:33;;;;;;;9.50;5.28;;;;;;;3.96;64.52;101216.41;1745708;81;21601;-55
2021/01/02 08:33:02;;;;;;;10.38;5.60;;;;;;;4.00;64.48;101222.73;1792841;77;21206;-55
2021/01/02 08:35:37;;;;;;;12.82;6.25;;;;;;;4.07;64.49;101216.84;1790680;79;21263;-54
2021/01/02 08:38:09;;;;;;;14.17;6.57;;;;;;;4.26;64.41;101216.94;1793294;79;21590;-55
2021/01/02 08:40:39;;;;;;;13.43;5.62;;;;;;;4.44;63.56;101228.38;1792762;79;22748;-55
2021/01/02 08:43:06;;;;;;;10.08;5.33;;;;;;;4.45;63.46;101229.63;1794660;79;21239;-54
2021/01/02 08:45:39;;;;;;;10.75;5.30;;;;;;;4.46;63.76;101231.30;1798247;79;21167;-55
2021/01/02 08:48:12;;;;;;;11.75;5.78;;;;;;;4.48;63.73;101228.64;1797273;79;21100;-55
2021/01/02 08:50:40;;;;;;;11.05;5.75;;;;;;;4.53;64.02;101225.38;1791061;79;21159;-56
2021/01/02 08:53:25;;;;;;;10.32;6.08;;;;;;;4.60;63.57;101221.60;1793239;79;22778;-55
2021/01/02 08:55:52;;;;;;;10.63;5.45;;;;;;;4.62;63.86;101221.11;1794204;79;21140;-56
2021/01/02 08:58:33;;;;;;;8.78;5.05;;;;;;;4.61;64.24;101222.47;1796026;79;21168;-54
2021/01/02 09:01:01;;;;;;;10.40;4.62;;;;;;;4.63;63.90;101217.57;1731157;82;21690;-56
2021/01/02 09:03:28;;;;;;;10.60;4.97;;;;;;;4.63;63.55;101228.00;1734794;81;21681;-56
2021/01/02 09:05:55;;;;;;;8.78;5.05;;;;;;;4.74;63.39;101223.66;1742416;81;23540;-56
2021/01/02 09:08:24;;;;;;;12.30;5.37;;;;;;;4.74;63.39;101223.66;1732384;81;21187;-56
2021/01/02 09:10:57;;;;;;;11.68;5.80;;;;;;;4.81;63.20;101223.78;1792550;79;21155;-56
2021/01/02 09:13:27;;;;;;;10.72;5.50;;;;;;;4.84;63.30;101230.61;1801708;79;21207;-56
2021/01/02 09:15:59;;;;;;;9.68;5.58;;;;;;;4.87;63.17;101233.55;1794233;77;21171;-57
2021/01/02 09:18:35;;;;;;;10.28;5.05;;;;;;;4.86;63.23;101234.02;1795050;77;22449;-56
2021/01/02 09:21:12;;;;;;;;;;;;;;;4.87;63.44;101241.38;1804013;77;21639;-56
2021/01/02 09:23:43;;;;;;;10.80;6.28;;;;;;;4.91;63.59;101238.58;1793593;79;20303;-56
2021/01/02 09:26:35;;;;;;;8.85;5.03;;;;;;;4.88;63.49;101233.49;1796961;79;21686;-57
2021/01/02 09:29:17;;;;;;;10.63;5.55;;;;;;;4.90;63.34;101243.86;1787648;77;21231;-56
2021/01/02 09:31:45;;;;;;;9.28;4.42;;;;;;;4.87;63.54;101237.47;1795593;79;21355;-56
2021/01/02 09:34:12;;;;;;;12.58;5.20;;;;;;;4.86;63.65;101241.84;1789928;79;22009;-57
2021/01/02 09:36:40;;;;;;;9.98;5.33;;;;;;;4.92;63.80;101232.44;1789868;77;21485;-57
2021/01/02 09:39:07;;;;;;;9.45;5.12;;;;;;;5.05;63.36;101235.84;1794315;79;21630;-56
2021/01/02 09:41:35;;;;;;;10.58;4.70;;;;;;;5.06;63.28;101237.08;1803304;77;21647;-56
2021/01/02 09:44:04;;;;;;;9.55;4.83;;;;;;;5.02;63.34;101239.41;1735830;81;21233;-55
2021/01/02 09:46:33;;;;;;;10.38;5.60;;;;;;;4.96;63.53;101236.63;1751149;79;21221;-55
2021/01/02 09:49:00;;;;;;;9.13;4.83;;;;;;;4.90;63.76;101236.87;1748669;81;21772;-58
2021/01/02 09:51:29;;;;;;;9.88;4.92;;;;;;;4.92;63.89;101240.27;1789486;79;21489;-55
2021/01/02 09:53:56;;;;;;;9.33;4.70;;;;;;;4.94;63.83;101241.06;1802680;79;21756;-55
2021/01/02 09:56:24;;;;;;;8.80;4.95;;;;;;;4.95;63.84;101240.13;1792156;79;21390;-55
2021/01/02 09:58:52;;;;;;;11.20;4.72;;;;;;;4.96;63.77;101250.10;1800188;77;21988;-55
2021/01/02 10:01:19;;;;;;;8.38;4.35;;;;;;;4.92;63.99;101247.25;1794799;79;21188;-54
2021/01/02 10:03:47;;;;;;;8.80;4.62;;;;;;;4.98;64.10;101242.61;1793198;79;21974;-55
2021/01/02 10:06:15;;;;;;;9.13;4.95;;;;;;;5.13;63.65;101240.27;1792402;79;21200;-55
2021/01/02 10:08:42;;;;;;;12.18;5.22;;;;;;;5.24;63.69;101241.94;1805442;78;21405;-54
2021/01/02 10:11:10;;;;;;;9.28;4.65;;;;;;;5.31;63.71;101243.37;1797441;79;21736;-54
2021/01/02 10:13:37;;;;;;;9.20;4.65;;;;;;;5.38;63.63;101239.57;1791989;79;21164;-54
2021/01/02 10:16:05;;;;;;;10.38;4.50;;;;;;;5.47;63.55;101236.16;1789059;79;21175;-55
2021/01/02 10:18:33;;;;;;;10.08;5.00;;;;;;;5.61;63.33;101240.28;1789732;79;21295;-54
2021/01/02 10:21:00;;;;;;;8.40;4.83;;;;;;;5.61;63.33;101240.28;1792033;79;23657;-55
2021/01/02 10:23:28;;;;;;;8.70;4.72;;;;;;;5.62;63.16;101238.08;1792491;79;21649;-54
2021/01/02 10:25:55;;;;;;;9.53;4.60;;;;;;;5.64;63.41;101240.16;1791608;79;21522;-54
2021/01/02 10:28:23;;;;;;;8.63;4.70;;;;;;;5.68;63.51;101239.11;1801256;79;21183;-56
2021/01/02 10:30:50;;;;;;;9.63;5.42;;;;;;;5.80;63.02;101236.83;1792646;79;21191;-55
2021/01/02 10:33:17;;;;;;;9.08;4.45;;;;;;;5.94;62.62;101246.19;1799203;79;21794;-56
2021/01/02 10:35:46;;;;;;;12.07;4.97;;;;;;;5.88;62.49;101251.22;1736929;80;21215;-56
2021/01/02 10:38:13;;;;;;;10.00;4.35;;;;;;;5.88;62.49;101251.22;1741555;81;21187;-56
2021/01/02 10:40:41;;;;;;;10.35;5.10;;;;;;;5.79;62.57;101253.44;1740221;81;21168;-57
2021/01/02 10:43:09;;;;;;;9.73;4.85;;;;;;;5.74;62.92;101255.78;1793256;79;22345;-55
2021/01/02 10:45:36;;;;;;;10.05;4.97;;;;;;;5.70;62.96;101253.38;1793272;79;21356;-57
2021/01/02 10:48:05;;;;;;;10.38;5.12;;;;;;;5.72;63.17;101260.70;1795523;77;21659;-55
2021/01/02 10:50:33;;;;;;;8.05;4.40;;;;;;;5.76;63.20;101250.49;1793060;79;21220;-56
2021/01/02 10:53:01;;;;;;;9.80;4.40;;;;;;;5.81;63.06;101251.59;1792346;77;21698;-56
2021/01/02 10:55:29;;;;;;;8.70;4.42;;;;;;;5.85;63.24;101250.52;1791250;79;21204;-55
2021/01/02 10:57:56;;;;;;;8.73;4.53;;;;;;;6.00;63.24;101253.78;1788862;79;22155;-56
2021/01/02 11:00:25;;;;;;;11.15;5.20;;;;;;;6.24;62.54;101246.53;1800951;79;21187;-55
2021/01/02 11:02:52;;;;;;;9.33;4.50;;;;;;;6.46;61.66;101241.10;1789622;79;21147;-55
2021/01/02 11:05:20;;;;;;;9.88;5.03;;;;;;;6.46;61.66;101241.10;1790305;79;21563;-54
2021/01/02 11:07:47;;;;;;;12.65;6.15;;;;;;;6.50;61.90;101249.16;1789946;79;21258;-54
2021/01/02 11:10:15;;;;;;;11.48;5.92;;;;;;;6.51;61.58;101249.56;1788754;79;21406;-54
2021/01/02 11:12:43;;;;;;;10.58;4.53;;;;;;;6.50;61.66;101251.78;1791060;79;21175;-55
2021/01/02 11:15:12;;;;;;;9.55;4.20;;;;;;;6.50;61.66;101251.78;1789122;79;21452;-55
2021/01/02 11:17:40;;;;;;;9.15;4.72;;;;;;;6.45;61.51;101252.47;1787825;79;21192;-56
2021/01/02 11:20:10;;;;;;;8.45;4.90;;;;;;;6.41;61.70;101253.55;1802129;79;21658;-55
2021/01/02 11:22:39;;;;;;;9.10;4.78;;;;;;;6.42;61.58;101253.95;1784911;78;21431;-55
2021/01/02 11:25:09;;;;;;;9.58;4.87;;;;;;;6.48;61.39;101260.64;1784885;79;21183;-54
2021/01/02 11:27:36;;;;;;;8.15;4.42;;;;;;;6.48;61.39;101260.64;1784870;79;21112;-54
2021/01/02 11:30:06;;;;;;;9.58;4.70;;;;;;;6.57;61.57;101265.88;1784612;78;21496;-54
2021/01/02 11:32:33;;;;;;;8.58;5.22;;;;;;;6.70;61.11;101267.80;1781736;79;21599;-54
2021/01/02 11:35:01;;;;;;;9.90;5.03;;;;;;;6.74;60.78;101268.52;1790492;79;22287;-55
2021/01/02 11:37:28;;;;;;;9.53;5.37;;;;;;;6.70;61.03;101262.56;1791364;78;21191;-54
2021/01/02 11:39:57;;;;;;;8.50;4.85;;;;;;;6.74;60.80;101271.13;1787029;79;21190;-53
2021/01/02 11:42:25;;;;;;;9.20;5.17;;;;;;;6.72;60.92;101266.42;1791903;79;22366;-55
2021/01/02 11:44:52;;;;;;;8.65;5.33;;;;;;;6.72;61.01;101269.50;1785676;79;21548;-54
2021/01/02 11:47:20;;;;;;;9.05;5.00;;;;;;;6.72;60.56;101267.72;1786784;79;23394;-55
2021/01/02 11:49:47;;;;;;;10.08;5.08;;;;;;;6.70;60.60;101271.72;1783507;79;21459;-56
2021/01/02 11:52:15;;;;;;;9.10;4.40;;;;;;;6.70;60.71;101270.88;1781866;79;21619;-56
2021/01/02 11:54:43;;;;;;;9.78;4.92;;;;;;;6.73;60.81;101270.73;1787034;79;21916;-55
2021/01/02 11:57:10;;;;;;;12.10;5.33;;;;;;;6.87;60.70;101272.66;1782758;79;21631;-56
2021/01/02 11:59:39;;;;;;;10.15;5.20;;;;;;;6.87;60.70;101272.66;1783248;77;21790;-55
2021/01/02 12:02:06;;;;;;;9.85;6.03;;;;;;;6.93;60.13;101272.83;1771541;79;21481;-54
2021/01/02 12:04:34;;;;;;;10.32;5.87;;;;;;;7.01;59.72;101275.88;1783727;79;21186;-55
2021/01/02 12:07:03;;;;;;;8.10;5.15;;;;;;;6.93;59.87;101271.05;1785603;79;21844;-55